Airfield :
LOGIN :

Register | Disclaimer

   EN    FR    IT 

 










Legend :    VFR   Marginal VFR   IFR   Intensive IFR   Very Intensive IFR
Visi :
Ceiling :
>= 8 km
>= 3000ft
5 to 8 km
1000 to 3000 ft
1500m to 5 km
500 to 1000 ft
800 to 1500m
200 to 500 ft
< 800m
< 200 ft
Symbols :   Thunderstorms  Fog  Heavy snow  Heavy precipitations  Wind > 20 kt
SIGMETs :     Misc.  Thunderstorms  Icing  Turbulence  Mountain Waves  Volcanic Ashes






- Airport Elevation : 257 ft
- IATA code : MAN


EGCC - Manchester

CURRENT METAR :
  • 281720Z AUTO 02014KT 9999 FEW039 OVC048 07/M01 Q1036 NOSIG

EXPIRED METARs :
  • 281650Z AUTO 04017KT 9999 SCT045 08/M01 Q1036 NOSIG
  • 281620Z AUTO 03020KT 9999 BKN045 08/M02 Q1035 NOSIG
  • 281550Z AUTO 04017KT 9999 NCD 08/M00 Q1035 NOSIG
  • 281520Z AUTO 03017KT 9999 OVC043 09/M01 Q1035 NOSIG
  • 281450Z AUTO 04016KT 9999 FEW033 SCT040 BKN047 09/00 Q1035 NOSIG

TAF TAF EGCC
Valid from the 28 at 18:00 until the 30 at 00:00 UTC


281703Z 2818/2924 03012KT 9999 SCT025
TEMPO 2818/2820 05015G25KT
PROB30
TEMPO 2909/2915 04015G25KT
BECMG 2921/2924 33004KT
ATIS : +44 161 499 2324



MET'MAP, your aeronautical weather chart ! - Copyright ORBIFLY December 2007 - Disclaimer

ORBIFLY MET'MAP TEAM :

Programming & Development : Alexandra Zaïnal
Concept & original design : Baudouin d'Aumeries
Assistance for programming : Marc-Olivier Méhu
Technical & hardware support : Manuel Goepfert

Contact : metmap@orbifly.com




SOURCES & CREDITS :

   NOAA